createdAt,value
2023-01-08T01:14:45.315Z,2.11
2023-01-08T01:45:36.469Z,2.33
2023-01-08T02:17:51.384Z,2.35
2023-01-08T02:28:17.071Z,2.26
2023-01-08T02:33:18.276Z,2.37
2023-01-08T02:38:15.577Z,2.40
2023-01-08T02:48:58.031Z,2.25
2023-01-08T02:59:07.364Z,2.20
2023-01-08T03:04:10.732Z,2.30
2023-01-08T03:09:02.637Z,2.35
2023-01-08T03:14:15.862Z,2.44
2023-01-08T03:19:32.604Z,2.36
2023-01-08T03:24:39.470Z,2.24
2023-01-08T03:29:34.887Z,2.32
2023-01-08T03:34:30.379Z,2.33
2023-01-08T03:39:38.058Z,2.41
2023-01-08T03:44:29.890Z,2.34
2023-01-08T03:54:35.407Z,2.30
2023-01-08T03:59:27.183Z,2.24
2023-01-08T04:04:19.070Z,2.26
2023-01-08T04:09:10.867Z,2.33
2023-01-08T04:14:02.822Z,2.35
2023-01-08T04:18:54.531Z,2.41
2023-01-08T04:23:47.091Z,2.61
2023-01-08T04:28:38.868Z,2.54
2023-01-08T04:33:34.565Z,2.59
2023-01-08T04:38:26.367Z,2.51
2023-01-08T04:43:18.123Z,2.47
2023-01-08T04:48:10.916Z,2.53
2023-01-08T04:53:02.601Z,2.58
2023-01-08T04:57:54.279Z,2.67
2023-01-08T05:02:46.457Z,2.69
2023-01-08T05:07:38.214Z,2.68
2023-01-08T05:12:29.964Z,2.80
2023-01-08T05:17:21.734Z,3.00
2023-01-08T05:22:13.759Z,3.05
2023-01-08T05:27:06.069Z,2.97
2023-01-08T05:31:57.899Z,2.92
2023-01-08T05:36:50.025Z,2.92
2023-01-08T05:41:41.809Z,2.98
2023-01-08T05:46:33.738Z,3.06
2023-01-08T05:51:26.084Z,3.03
2023-01-08T05:56:18.480Z,3.07
2023-01-08T06:01:20.189Z,3.13
2023-01-08T06:06:13.256Z,3.25
2023-01-08T06:11:09.670Z,3.31
2023-01-08T06:16:03.506Z,3.27
2023-01-08T06:20:55.795Z,3.21
2023-01-08T06:25:57.167Z,3.30
2023-01-08T06:30:49.402Z,3.32
2023-01-08T06:35:41.268Z,3.36
2023-01-08T06:40:33.178Z,3.39
2023-01-08T06:45:26.169Z,3.26
2023-01-08T06:50:20.870Z,3.30
2023-01-08T06:55:13.038Z,3.28
2023-01-08T07:00:06.613Z,3.19
2023-01-08T07:04:59.022Z,3.27
2023-01-08T07:09:51.254Z,3.41
2023-01-08T07:14:46.555Z,3.53
2023-01-08T07:19:38.571Z,3.60
2023-01-08T07:24:30.595Z,3.61
2023-01-08T07:29:22.459Z,3.65
2023-01-08T07:34:18.132Z,3.79
2023-01-08T07:39:14.894Z,3.88
2023-01-08T07:49:12.854Z,4.11
2023-01-08T07:54:05.277Z,4.03
2023-01-08T07:58:57.465Z,3.96
2023-01-08T08:03:53.333Z,3.94
2023-01-08T08:08:45.816Z,3.95
2023-01-08T08:13:42.566Z,3.99
2023-01-08T08:18:34.999Z,3.94
2023-01-08T08:23:28.736Z,4.08
2023-01-08T08:28:21.228Z,4.21
2023-01-08T08:33:21.306Z,4.24
2023-01-08T08:38:13.284Z,4.35
2023-01-08T08:43:06.406Z,4.45
2023-01-08T08:53:06.997Z,4.46
2023-01-08T08:58:25.840Z,4.50
2023-01-08T09:03:21.987Z,4.62
2023-01-08T09:08:14.480Z,4.79
2023-01-08T09:13:06.644Z,4.86
2023-01-08T09:18:07.206Z,4.84
2023-01-08T09:23:10.605Z,4.92
2023-01-08T09:28:12.969Z,5.02
2023-01-08T09:38:12.553Z,5.30
2023-01-08T09:43:09.601Z,5.29
2023-01-08T17:40:53.813Z,6.60
2023-01-08T17:45:55.099Z,6.74
2023-01-08T17:50:48.403Z,6.58
2023-01-08T17:55:41.423Z,6.65
2023-01-08T18:00:33.214Z,6.50
2023-01-08T18:05:25.274Z,6.46
2023-01-08T18:10:18.612Z,6.38
2023-01-08T18:15:10.971Z,6.37
2023-01-08T18:20:02.779Z,6.33
2023-01-08T18:24:54.597Z,6.22
2023-01-08T18:29:46.462Z,6.44
2023-01-08T18:34:39.192Z,6.37
2023-01-08T18:39:31.865Z,6.31
2023-01-08T18:44:27.774Z,6.34
2023-01-08T18:49:21.800Z,6.36
2023-01-08T18:54:13.685Z,6.32
2023-01-08T18:59:08.269Z,6.33
2023-01-08T19:04:03.926Z,6.28
2023-01-08T19:09:00.830Z,6.35
2023-01-08T19:13:57.349Z,6.33
2023-01-08T19:44:23.542Z,6.58
2023-01-08T20:25:28.574Z,6.47
2023-01-08T20:35:35.055Z,6.42
2023-01-08T21:16:51.836Z,6.52
2023-01-08T23:19:53.439Z,6.69
2023-01-08T23:29:52.062Z,6.79
2023-01-08T23:34:47.828Z,6.67
2023-01-08T23:39:40.917Z,6.58
2023-01-08T23:49:40.799Z,6.54
2023-01-08T23:54:33.149Z,6.62
2023-01-08T23:59:26.186Z,6.68
